createdAt,value
2023-09-06T00:00:29.368Z,3.35
2023-09-06T00:04:11.978Z,3.05
2023-09-06T00:07:37.975Z,3.53
2023-09-06T00:11:05.681Z,3.33
2023-09-06T00:14:33.837Z,3.30
2023-09-06T00:18:00.764Z,3.40
2023-09-06T00:21:28.308Z,3.88
2023-09-06T00:24:59.655Z,3.42
2023-09-06T00:28:26.278Z,3.17
2023-09-06T00:31:58.948Z,3.20
2023-09-06T00:35:25.464Z,3.33
2023-09-06T00:38:51.566Z,3.85
2023-09-06T00:42:17.205Z,3.55
2023-09-06T00:45:45.960Z,3.00
2023-09-06T00:49:14.348Z,3.10
2023-09-06T00:52:41.236Z,3.10
2023-09-06T00:56:10.349Z,3.75
2023-09-06T00:59:37.462Z,3.33
2023-09-06T01:03:04.657Z,3.15
2023-09-06T01:06:35.144Z,3.35
2023-09-06T01:10:00.784Z,3.90
2023-09-06T01:13:26.934Z,3.53
2023-09-06T01:16:55.925Z,3.30
2023-09-06T01:20:28.410Z,3.25
2023-09-06T01:23:58.546Z,3.65
2023-09-06T01:27:24.820Z,4.22
2023-09-06T01:30:51.195Z,3.58
2023-09-06T01:34:17.315Z,3.65
2023-09-06T01:37:44.529Z,3.60
2023-09-06T01:41:17.059Z,3.80
2023-09-06T01:44:46.831Z,3.63
2023-09-06T01:48:14.647Z,4.00
2023-09-06T01:51:40.406Z,3.80
2023-09-06T01:55:06.773Z,4.00
2023-09-06T01:58:35.775Z,3.88
2023-09-06T02:02:03.179Z,4.00
2023-09-06T02:05:28.639Z,3.47
2023-09-06T02:08:56.534Z,5.10
2023-09-06T02:12:23.362Z,3.90
2023-09-06T02:15:52.536Z,3.78
2023-09-06T02:19:18.606Z,4.15
2023-09-06T02:22:48.704Z,4.15
2023-09-06T02:26:15.334Z,4.32
2023-09-06T02:29:41.467Z,4.28
2023-09-06T02:33:13.196Z,4.07
2023-09-06T02:36:39.571Z,4.05
2023-09-06T02:40:08.249Z,3.50
2023-09-06T02:43:35.044Z,3.72
2023-09-06T02:47:11.075Z,3.95
2023-09-06T02:50:41.372Z,3.80
2023-09-06T02:54:07.096Z,3.90
2023-09-06T02:57:36.470Z,3.58
2023-09-06T03:01:07.946Z,3.90
2023-09-06T03:04:39.318Z,4.35
2023-09-06T03:08:12.579Z,4.10
2023-09-06T03:11:38.966Z,3.65
2023-09-06T03:15:07.039Z,4.20
2023-09-06T03:18:33.086Z,4.00
2023-09-06T03:21:59.503Z,4.28
2023-09-06T03:25:28.447Z,4.18
2023-09-06T03:28:56.748Z,3.95
2023-09-06T03:32:26.549Z,3.92
2023-09-06T03:35:54.763Z,3.60
2023-09-06T03:39:20.953Z,4.35
2023-09-06T03:42:49.061Z,4.95
2023-09-06T03:46:23.815Z,4.35
2023-09-06T03:49:49.444Z,4.20
2023-09-06T03:53:16.483Z,4.35
2023-09-06T03:56:43.209Z,3.95
2023-09-06T04:00:26.494Z,4.70
2023-09-06T04:03:52.609Z,4.32
2023-09-06T04:07:20.723Z,4.30
2023-09-06T04:10:46.245Z,4.60
2023-09-06T04:14:12.314Z,4.38
2023-09-06T04:17:41.861Z,4.95
2023-09-06T04:21:10.236Z,4.30
2023-09-06T04:24:36.676Z,4.38
2023-09-06T04:28:03.070Z,4.25
2023-09-06T04:31:28.790Z,4.90
2023-09-06T04:34:57.993Z,4.30
2023-09-06T04:38:25.145Z,4.90
2023-09-06T04:41:51.828Z,4.78
2023-09-06T04:45:17.395Z,4.43
2023-09-06T04:48:43.995Z,4.28
2023-09-06T04:52:12.596Z,4.20
2023-09-06T04:55:41.938Z,4.65
2023-09-06T04:59:09.921Z,4.50
2023-09-06T05:02:36.080Z,4.30
2023-09-06T05:06:02.457Z,4.47
2023-09-06T05:09:32.875Z,4.25
2023-09-06T05:12:58.598Z,4.55
2023-09-06T05:16:26.047Z,4.47
2023-09-06T05:19:57.235Z,4.53
2023-09-06T05:23:23.533Z,4.55
2023-09-06T05:26:52.070Z,4.90
2023-09-06T05:30:18.739Z,4.55
2023-09-06T05:33:44.848Z,4.30
2023-09-06T05:37:11.000Z,4.70
2023-09-06T05:40:37.469Z,4.30
2023-09-06T05:44:07.771Z,4.80
2023-09-06T05:47:37.416Z,4.10
2023-09-06T05:51:03.574Z,4.30
2023-09-06T05:54:29.126Z,4.60
2023-09-06T05:57:59.544Z,4.70
2023-09-06T06:01:28.215Z,5.70
2023-09-06T06:04:54.454Z,5.15
2023-09-06T06:08:20.193Z,4.35
2023-09-06T06:11:46.393Z,4.38
2023-09-06T06:15:13.720Z,4.80
2023-09-06T06:18:42.472Z,4.70
2023-09-06T06:22:08.308Z,5.05
2023-09-06T06:25:34.485Z,4.43
2023-09-06T06:29:04.339Z,4.53
2023-09-06T06:32:30.519Z,5.03
2023-09-06T06:35:59.197Z,4.80
2023-09-06T06:39:27.963Z,4.50
2023-09-06T06:42:53.565Z,4.63
2023-09-06T06:46:31.206Z,4.68
2023-09-06T06:50:04.806Z,4.90
2023-09-06T06:53:33.551Z,4.80
2023-09-06T06:56:59.204Z,5.00
2023-09-06T07:00:26.072Z,5.07
2023-09-06T07:03:52.709Z,4.88
2023-09-06T07:07:18.933Z,4.97
2023-09-06T07:10:47.623Z,5.75
2023-09-06T07:14:13.792Z,5.70
2023-09-06T07:17:40.843Z,5.53
2023-09-06T07:21:08.322Z,5.53
2023-09-06T07:24:34.044Z,5.55
2023-09-06T07:28:04.158Z,5.47
2023-09-06T07:31:29.701Z,4.82
2023-09-06T07:34:57.098Z,5.22
2023-09-06T07:38:23.085Z,5.82
2023-09-06T07:41:50.241Z,5.43
2023-09-06T07:45:19.288Z,5.82
2023-09-06T07:48:45.619Z,6.25
2023-09-06T07:52:11.715Z,5.57
2023-09-06T07:55:39.264Z,5.50
2023-09-06T07:59:05.139Z,5.55
2023-09-06T08:02:35.173Z,5.78
2023-09-06T08:06:00.931Z,5.40
2023-09-06T08:09:28.762Z,5.38
2023-09-06T08:12:55.105Z,5.45
2023-09-06T08:16:21.342Z,5.63
2023-09-06T08:19:51.792Z,5.47
2023-09-06T08:23:23.306Z,5.97
2023-09-06T08:26:51.599Z,5.63
2023-09-06T08:30:18.825Z,5.38
2023-09-06T08:33:46.984Z,6.03
2023-09-06T08:37:18.157Z,5.53
2023-09-06T08:40:45.037Z,6.03
2023-09-06T08:44:14.783Z,5.75
2023-09-06T08:47:41.009Z,5.60
2023-09-06T08:51:08.396Z,4.82
2023-09-06T08:54:40.384Z,5.90
2023-09-06T08:58:09.880Z,6.28
2023-09-06T09:01:35.499Z,5.70
2023-09-06T09:05:17.531Z,5.60
2023-09-06T09:08:45.780Z,5.50
2023-09-06T09:12:14.972Z,5.97
2023-09-06T09:15:40.772Z,6.13
2023-09-06T09:19:08.174Z,6.03
2023-09-06T09:22:36.572Z,6.18
2023-09-06T09:26:04.493Z,5.97
2023-09-06T09:29:33.748Z,5.85
2023-09-06T09:33:05.885Z,6.03
2023-09-06T09:36:40.303Z,5.53
2023-09-06T09:40:19.106Z,5.57
2023-09-06T09:43:45.006Z,5.82
2023-09-06T09:47:43.144Z,5.63
2023-09-06T09:51:06.555Z,5.35
2023-09-06T09:54:35.502Z,5.25
2023-09-06T09:58:06.961Z,5.10
2023-09-06T10:01:33.102Z,5.57
2023-09-06T10:05:04.238Z,5.35
2023-09-06T10:08:30.918Z,4.20
2023-09-06T10:11:57.576Z,4.40
2023-09-06T10:15:26.495Z,4.97
2023-09-06T10:18:52.341Z,4.75
2023-09-06T10:22:24.741Z,4.03
2023-09-06T10:29:22.739Z,4.90
2023-09-06T10:32:50.074Z,4.00
2023-09-06T10:36:19.791Z,3.92
2023-09-06T10:39:55.542Z,3.90
2023-09-06T10:43:24.386Z,4.65
2023-09-06T10:46:54.176Z,4.47
2023-09-06T10:50:21.564Z,4.95
2023-09-06T10:53:51.964Z,4.40
2023-09-06T10:57:25.128Z,4.28
2023-09-06T11:01:10.834Z,4.30
2023-09-06T11:04:38.386Z,4.70
2023-09-06T11:08:16.552Z,4.93
2023-09-06T11:11:43.300Z,4.53
2023-09-06T11:15:12.906Z,4.50
2023-09-06T11:18:49.307Z,4.68
2023-09-06T11:22:15.464Z,4.20
2023-09-06T11:25:41.548Z,4.93
2023-09-06T11:29:09.781Z,4.47
2023-09-06T11:32:41.885Z,5.20
2023-09-06T11:36:07.881Z,5.22
2023-09-06T11:39:36.177Z,5.43
2023-09-06T11:43:04.151Z,5.10
2023-09-06T11:46:37.785Z,4.63
2023-09-06T11:50:08.419Z,5.10
2023-09-06T11:53:43.395Z,4.72
2023-09-06T11:57:12.256Z,5.25
2023-09-06T12:00:44.730Z,5.00
2023-09-06T12:04:11.730Z,4.38
2023-09-06T12:07:41.868Z,4.95
2023-09-06T12:11:12.575Z,4.03
2023-09-06T12:14:40.267Z,4.03
2023-09-06T12:18:08.511Z,4.40
2023-09-06T12:21:35.778Z,4.18
2023-09-06T12:25:04.651Z,4.30
2023-09-06T12:28:33.950Z,4.20
2023-09-06T12:32:05.632Z,4.30
2023-09-06T12:35:37.337Z,4.00
2023-09-06T12:39:15.357Z,4.13
2023-09-06T12:42:53.847Z,4.18
2023-09-06T12:46:19.769Z,4.80
2023-09-06T12:49:47.009Z,4.78
2023-09-06T12:53:15.536Z,4.80
2023-09-06T12:56:41.980Z,4.53
2023-09-06T13:00:11.843Z,4.40
2023-09-06T13:03:37.968Z,4.30
2023-09-06T13:07:06.358Z,4.20
2023-09-06T13:10:37.623Z,4.10
2023-09-06T13:14:03.332Z,3.90
2023-09-06T13:17:33.284Z,4.40
2023-09-06T13:20:59.602Z,4.10
2023-09-06T13:24:25.836Z,4.07
2023-09-06T13:27:53.417Z,4.30
2023-09-06T13:31:19.999Z,4.30
2023-09-06T13:34:48.277Z,4.53
2023-09-06T13:38:14.362Z,4.00
2023-09-06T13:41:40.184Z,3.83
2023-09-06T13:45:13.096Z,4.47
2023-09-06T13:48:38.960Z,4.05
2023-09-06T13:52:13.490Z,4.55
2023-09-06T13:55:41.721Z,4.30
2023-09-06T13:59:09.638Z,4.28
2023-09-06T14:02:36.811Z,4.22
2023-09-06T14:06:05.654Z,4.32
2023-09-06T14:09:35.390Z,3.85
2023-09-06T14:13:02.161Z,4.07
2023-09-06T14:16:27.748Z,4.10
2023-09-06T14:19:53.838Z,4.38
2023-09-06T14:23:21.860Z,4.30
2023-09-06T14:26:52.387Z,4.32
2023-09-06T14:30:18.929Z,3.83
2023-09-06T14:33:45.079Z,5.40
2023-09-06T14:37:11.820Z,4.85
2023-09-06T14:40:43.294Z,4.22
2023-09-06T14:44:15.588Z,4.00
2023-09-06T14:47:43.553Z,4.43
2023-09-06T14:51:09.526Z,4.68
2023-09-06T14:54:36.074Z,4.47
2023-09-06T14:58:05.249Z,4.93
2023-09-06T15:01:35.027Z,4.88
2023-09-06T15:05:02.673Z,5.75
2023-09-06T15:08:29.889Z,5.10
2023-09-06T15:11:56.698Z,5.43
2023-09-06T15:15:22.998Z,4.95
2023-09-06T15:18:52.292Z,6.03
2023-09-06T15:22:29.251Z,5.90
2023-09-06T15:26:04.178Z,5.80
2023-09-06T15:29:30.540Z,6.13
2023-09-06T15:32:56.306Z,5.05
2023-09-06T15:36:27.177Z,5.55
2023-09-06T15:39:55.145Z,5.57
2023-09-06T15:43:21.844Z,6.85
2023-09-06T15:46:48.560Z,7.60
2023-09-06T15:50:17.047Z,7.45
2023-09-06T15:53:50.187Z,7.32
2023-09-06T15:57:16.532Z,6.85
2023-09-06T16:00:42.231Z,7.43
2023-09-06T16:04:11.088Z,7.15
2023-09-06T16:07:37.605Z,6.47
2023-09-06T16:11:06.404Z,7.05
2023-09-06T16:14:34.187Z,6.93
2023-09-06T16:18:02.150Z,6.93
2023-09-06T16:21:33.860Z,6.75
2023-09-06T16:25:05.076Z,7.50
2023-09-06T16:28:34.189Z,7.40
2023-09-06T16:32:00.360Z,7.35
2023-09-06T16:35:28.562Z,6.75
2023-09-06T16:38:55.252Z,7.22
2023-09-06T16:42:25.100Z,7.70
2023-09-06T16:45:54.309Z,7.40
2023-09-06T16:49:20.277Z,7.00
2023-09-06T16:52:48.981Z,8.45
2023-09-06T16:56:16.658Z,8.50
2023-09-06T16:59:42.726Z,8.15
2023-09-06T17:03:11.330Z,7.97
2023-09-06T17:06:38.885Z,8.80
2023-09-06T17:10:09.825Z,6.93
2023-09-06T17:13:36.502Z,8.67
2023-09-06T17:17:02.125Z,7.20
2023-09-06T17:20:30.931Z,6.95
2023-09-06T17:24:03.417Z,7.72
2023-09-06T17:27:34.064Z,8.15
2023-09-06T17:31:01.484Z,8.35
2023-09-06T17:34:27.875Z,8.68
2023-09-06T17:37:56.389Z,9.68
2023-09-06T17:41:24.897Z,10.00
2023-09-06T17:44:51.937Z,10.20
2023-09-06T17:48:19.977Z,10.18
2023-09-06T17:51:46.433Z,11.15
2023-09-06T17:55:17.827Z,11.07
2023-09-06T17:58:44.885Z,11.20
2023-09-06T18:02:11.063Z,9.77
2023-09-06T18:05:40.151Z,8.77
2023-09-06T18:09:09.196Z,9.50
2023-09-06T18:12:38.513Z,9.82
2023-09-06T18:16:08.004Z,10.65
2023-09-06T18:19:33.688Z,9.98
2023-09-06T18:23:02.189Z,10.18
2023-09-06T18:26:27.719Z,9.68
2023-09-06T18:29:59.227Z,9.80
2023-09-06T18:33:25.340Z,9.85
2023-09-06T18:36:51.906Z,9.38
2023-09-06T18:40:20.567Z,9.52
2023-09-06T18:43:46.575Z,8.88
2023-09-06T18:47:15.981Z,9.18
2023-09-06T18:50:44.155Z,9.95
2023-09-06T18:54:09.744Z,9.40
2023-09-06T18:57:45.780Z,8.70
2023-09-06T19:01:21.763Z,9.27
2023-09-06T19:04:52.145Z,9.32
2023-09-06T19:08:20.150Z,9.50
2023-09-06T19:11:48.143Z,9.85
2023-09-06T19:15:15.371Z,9.40
2023-09-06T19:18:43.116Z,10.30
2023-09-06T19:22:12.893Z,10.25
2023-09-06T19:25:43.580Z,9.75
2023-09-06T19:29:10.687Z,9.70
2023-09-06T19:32:36.988Z,10.38
2023-09-06T19:36:02.457Z,8.65
2023-09-06T19:39:31.046Z,9.00
2023-09-06T19:42:56.548Z,10.55
2023-09-06T19:46:23.832Z,10.25
2023-09-06T19:49:49.703Z,10.20
2023-09-06T19:53:15.852Z,10.02
2023-09-06T19:56:45.821Z,9.70
2023-09-06T20:00:15.274Z,10.48
2023-09-06T20:03:40.771Z,10.40
2023-09-06T20:07:16.716Z,9.02
2023-09-06T20:10:50.800Z,9.27
2023-09-06T20:14:20.015Z,9.90
2023-09-06T20:17:45.581Z,11.13
2023-09-06T20:21:11.679Z,11.23
2023-09-06T20:24:37.436Z,11.10
2023-09-06T20:28:03.558Z,11.52
2023-09-06T20:31:31.950Z,11.48
2023-09-06T20:34:58.185Z,11.40
2023-09-06T20:38:23.824Z,11.65
2023-09-06T20:41:50.639Z,12.15
2023-09-06T20:45:16.232Z,13.05
2023-09-06T20:48:47.466Z,13.07
2023-09-06T20:52:14.776Z,12.68
2023-09-06T20:55:41.168Z,12.13
2023-09-06T20:59:07.000Z,13.10
2023-09-06T21:02:32.921Z,12.30
2023-09-06T21:06:04.438Z,12.98
2023-09-06T21:09:30.587Z,12.65
2023-09-06T21:12:56.095Z,13.13
2023-09-06T21:16:22.061Z,11.63
2023-09-06T21:19:47.570Z,11.18
2023-09-06T21:23:16.613Z,12.40
2023-09-06T21:26:42.335Z,12.80
2023-09-06T21:30:09.081Z,12.85
2023-09-06T21:33:34.893Z,11.40
2023-09-06T21:37:00.982Z,12.20
2023-09-06T21:40:29.225Z,12.85
2023-09-06T21:43:55.087Z,13.20
2023-09-06T21:47:20.635Z,13.32
2023-09-06T21:50:51.182Z,12.07
2023-09-06T21:54:16.688Z,14.45
2023-09-06T21:57:58.867Z,14.55
2023-09-06T22:01:30.723Z,14.70
2023-09-06T22:04:57.993Z,13.35
2023-09-06T22:08:23.895Z,15.05
2023-09-06T22:11:49.815Z,14.95
2023-09-06T22:15:18.206Z,15.90
2023-09-06T22:18:44.540Z,15.00
2023-09-06T22:22:10.118Z,18.08
2023-09-06T22:25:36.029Z,16.63
2023-09-06T22:29:01.407Z,16.90
2023-09-06T22:32:30.121Z,16.05
2023-09-06T22:35:55.624Z,15.82
2023-09-06T22:39:21.704Z,15.25
2023-09-06T22:42:47.238Z,13.80
2023-09-06T22:46:13.520Z,12.60
2023-09-06T22:49:42.431Z,14.35
2023-09-06T22:53:08.888Z,15.60
2023-09-06T22:56:36.979Z,12.93
2023-09-06T23:00:03.085Z,11.85
2023-09-06T23:03:29.022Z,12.82
2023-09-06T23:06:58.879Z,12.52
2023-09-06T23:10:24.977Z,12.77
2023-09-06T23:13:50.989Z,11.30
2023-09-06T23:17:18.395Z,12.77
2023-09-06T23:20:48.549Z,12.52
2023-09-06T23:24:16.941Z,11.60
2023-09-06T23:27:47.048Z,11.05
2023-09-06T23:31:15.265Z,13.20
2023-09-06T23:34:45.682Z,12.68
2023-09-06T23:38:12.287Z,13.68
2023-09-06T23:41:43.249Z,12.10
2023-09-06T23:45:10.599Z,11.60
2023-09-06T23:48:36.556Z,13.05
2023-09-06T23:52:02.576Z,12.63
2023-09-06T23:55:29.960Z,11.68
2023-09-06T23:58:58.107Z,12.88
